createdAt,value
2023-01-27T00:02:29.366Z,100763.87
2023-01-27T00:05:08.549Z,100763.36
2023-01-27T00:07:53.155Z,100763.52
2023-01-27T00:10:39.902Z,100764.73
2023-01-27T00:13:41.261Z,100763.36
2023-01-27T00:16:22.096Z,100759.58
2023-01-27T00:19:09.834Z,100758.54
2023-01-27T00:22:07.322Z,100759.05
2023-01-27T00:24:41.747Z,100761.10
2023-01-27T00:27:26.359Z,100761.27
2023-01-27T00:30:03.154Z,100761.09
2023-01-27T00:35:44.737Z,100756.61
2023-01-27T00:38:17.023Z,100762.11
2023-01-27T00:41:08.939Z,100757.98
2023-01-27T00:43:54.914Z,100761.06
2023-01-27T00:46:29.495Z,100762.09
2023-01-27T00:49:19.681Z,100760.56
2023-01-27T00:51:55.214Z,100756.96
2023-01-27T00:54:25.157Z,100756.45
2023-01-27T00:56:58.506Z,100757.50
2023-01-27T00:59:30.593Z,100754.59
2023-01-27T01:02:19.356Z,100756.83
2023-01-27T01:04:56.668Z,100753.90
2023-01-27T01:07:41.895Z,100753.73
2023-01-27T01:10:35.684Z,100752.52
2023-01-27T01:13:13.304Z,100751.15
2023-01-27T01:16:06.969Z,100754.41
2023-01-27T01:18:42.718Z,100755.25
2023-01-27T01:21:26.453Z,100754.05
2023-01-27T01:24:10.218Z,100760.91
2023-01-27T01:27:04.583Z,100759.88
2023-01-27T01:29:44.566Z,100767.44
2023-01-27T01:32:18.628Z,100767.27
2023-01-27T01:34:58.292Z,100768.13
2023-01-27T01:37:34.138Z,100768.83
2023-01-27T01:40:17.387Z,100775.17
2023-01-27T01:43:08.033Z,100770.37
2023-01-27T01:45:56.870Z,100768.66
2023-01-27T01:49:05.658Z,100771.07
2023-01-27T01:52:03.514Z,100773.81
2023-01-27T01:54:56.965Z,100771.74
2023-01-27T01:57:39.035Z,100772.95
2023-01-27T02:00:25.581Z,100772.09
2023-01-27T02:03:02.471Z,100772.27
2023-01-27T02:05:55.188Z,100774.68
2023-01-27T02:08:45.048Z,100773.82
2023-01-27T02:11:28.758Z,100776.58
2023-01-27T02:14:04.884Z,100778.46
2023-01-27T02:16:45.693Z,100777.95
2023-01-27T02:20:14.641Z,100773.48
2023-01-27T02:23:25.106Z,100778.46
2023-01-27T02:26:27.677Z,100776.05
2023-01-27T02:29:12.267Z,100777.60
2023-01-27T02:32:16.372Z,100778.11
2023-01-27T02:35:05.894Z,100777.05
2023-01-27T02:37:40.845Z,100780.47
2023-01-27T02:40:13.963Z,100786.10
2023-01-27T02:42:58.183Z,100789.67
2023-01-27T02:45:31.881Z,100788.92
2023-01-27T02:48:20.260Z,100789.39
2023-01-27T02:51:03.224Z,100786.76
2023-01-27T02:53:49.030Z,100782.09
2023-01-27T02:56:27.134Z,100786.04
2023-01-27T02:59:26.464Z,100786.41
2023-01-27T03:02:00.636Z,100785.57
2023-01-27T03:04:41.146Z,100787.29
2023-01-27T03:07:15.430Z,100786.59
2023-01-27T03:09:48.307Z,100787.79
2023-01-27T03:12:20.118Z,100791.05
2023-01-27T03:15:11.861Z,100795.17
2023-01-27T03:18:07.158Z,100793.09
2023-01-27T03:20:39.523Z,100796.01
2023-01-27T03:23:23.022Z,100801.36
2023-01-27T03:25:57.457Z,100803.29
2023-01-27T03:28:30.480Z,100803.65
2023-01-27T03:31:20.183Z,100803.27
2023-01-27T03:34:02.915Z,100799.83
2023-01-27T03:37:15.376Z,100802.73
2023-01-27T03:40:12.889Z,100802.19
2023-01-27T03:43:03.648Z,100803.36
2023-01-27T03:45:52.395Z,100800.23
2023-01-27T03:48:36.292Z,100796.94
2023-01-27T03:51:09.764Z,100798.32
2023-01-27T03:53:39.831Z,100801.24
2023-01-27T03:56:15.843Z,100797.83
2023-01-27T03:58:52.992Z,100795.07
2023-01-27T04:01:47.743Z,100794.56
2023-01-27T04:04:44.961Z,100791.83
2023-01-27T04:07:20.098Z,100791.15
2023-01-27T04:09:54.825Z,100792.20
2023-01-27T04:12:27.983Z,100787.63
2023-01-27T04:14:58.117Z,100787.33
2023-01-27T04:17:47.834Z,100781.17
2023-01-27T04:20:22.685Z,100785.15
2023-01-27T04:22:59.873Z,100788.09
2023-01-27T04:25:31.584Z,100792.05
2023-01-27T04:28:06.771Z,100790.68
2023-01-27T04:30:52.357Z,100795.50
2023-01-27T04:33:30.379Z,100797.73
2023-01-27T04:36:14.931Z,100802.39
2023-01-27T04:38:51.567Z,100804.63
2023-01-27T04:41:21.510Z,100801.04
2023-01-27T04:43:52.476Z,100802.41
2023-01-27T04:46:25.015Z,100803.10
2023-01-27T04:48:55.001Z,100806.55
2023-01-27T04:51:36.374Z,100810.31
2023-01-27T04:54:17.745Z,100807.06
2023-01-27T04:57:16.649Z,100807.92
2023-01-27T04:59:46.789Z,100806.70
2023-01-27T05:02:19.007Z,100806.53
2023-01-27T05:04:58.321Z,100805.32
2023-01-27T05:07:42.594Z,100803.95
2023-01-27T05:10:23.521Z,100807.38
2023-01-27T05:13:23.086Z,100807.04
2023-01-27T05:16:13.190Z,100808.42
2023-01-27T05:18:56.147Z,100808.93
2023-01-27T05:21:31.344Z,100810.98
2023-01-27T05:24:15.785Z,100809.08
2023-01-27T05:26:53.806Z,100808.58
2023-01-27T05:29:34.595Z,100807.55
2023-01-27T05:32:04.761Z,100812.19
2023-01-27T05:34:42.610Z,100814.95
2023-01-27T05:37:14.781Z,100819.22
2023-01-27T05:39:58.063Z,100824.38
2023-01-27T05:42:39.800Z,100824.89
2023-01-27T05:45:19.596Z,100819.88
2023-01-27T05:47:54.375Z,100829.67
2023-01-27T05:50:37.844Z,100830.70
2023-01-27T05:53:10.037Z,100835.16
2023-01-27T05:55:49.666Z,100837.90
2023-01-27T05:58:28.357Z,100842.35
2023-01-27T06:01:22.661Z,100844.22
2023-01-27T06:03:54.280Z,100846.42
2023-01-27T06:09:39.580Z,100844.33
2023-01-27T06:12:11.771Z,100843.11
2023-01-27T06:14:44.685Z,100842.25
2023-01-27T06:17:17.914Z,100846.39
2023-01-27T06:19:52.878Z,100849.63
2023-01-27T06:22:34.498Z,100848.59
2023-01-27T06:25:06.824Z,100850.81
2023-01-27T06:27:40.730Z,100849.94
2023-01-27T06:30:16.660Z,100852.86
2023-01-27T06:33:09.366Z,100858.67
2023-01-27T06:36:01.323Z,100862.10
2023-01-27T06:39:02.499Z,100868.09
2023-01-27T06:41:36.749Z,100867.23
2023-01-27T06:44:09.281Z,100867.73
2023-01-27T06:46:43.367Z,100874.77
2023-01-27T06:49:13.503Z,100874.77
2023-01-27T06:51:46.022Z,100875.46
2023-01-27T06:54:22.539Z,100881.23
2023-01-27T06:57:00.140Z,100878.65
2023-01-27T06:59:49.170Z,100881.91
2023-01-27T07:02:20.319Z,100881.41
2023-01-27T07:04:55.846Z,100881.10
2023-01-27T07:07:27.469Z,100881.27
2023-01-27T07:10:02.743Z,100882.13
2023-01-27T07:12:36.098Z,100884.02
2023-01-27T07:15:08.667Z,100888.65
2023-01-27T07:17:44.625Z,100889.33
2023-01-27T07:20:16.343Z,100889.16
2023-01-27T07:22:46.609Z,100886.08
2023-01-27T07:25:22.341Z,100887.58
2023-01-27T07:27:53.656Z,100887.23
2023-01-27T07:30:31.223Z,100887.73
2023-01-27T07:33:16.655Z,100888.25
2023-01-27T07:35:55.651Z,100893.91
2023-01-27T07:38:28.519Z,100893.91
2023-01-27T07:41:00.852Z,100890.50
2023-01-27T07:43:30.519Z,100890.34
2023-01-27T07:46:00.984Z,100892.75
2023-01-27T07:48:30.725Z,100896.88
2023-01-27T07:51:00.556Z,100900.67
2023-01-27T07:53:35.038Z,100899.31
2023-01-27T07:56:17.082Z,100899.84
2023-01-27T07:59:10.197Z,100903.27
2023-01-27T08:01:44.289Z,100903.27
2023-01-27T08:04:22.218Z,100905.17
2023-01-27T08:07:14.444Z,100906.73
2023-01-27T08:10:01.538Z,100906.23
2023-01-27T08:12:47.088Z,100908.29
2023-01-27T08:15:24.011Z,100910.67
2023-01-27T08:18:02.154Z,100911.86
2023-01-27T08:20:45.859Z,100911.67
2023-01-27T08:23:18.664Z,100911.34
2023-01-27T08:25:56.847Z,100909.65
2023-01-27T08:28:28.869Z,100915.00
2023-01-27T08:31:14.004Z,100916.75
2023-01-27T08:33:50.226Z,100923.98
2023-01-27T08:36:24.153Z,100924.36
2023-01-27T08:38:53.885Z,100927.30
2023-01-27T08:41:27.000Z,100926.28
2023-01-27T08:43:59.039Z,100925.27
2023-01-27T08:46:38.580Z,100929.75
2023-01-27T08:49:08.359Z,100933.36
2023-01-27T08:51:43.639Z,100936.77
2023-01-27T08:54:13.260Z,100942.27
2023-01-27T08:56:43.199Z,100946.38
2023-01-27T08:59:17.752Z,100949.48
2023-01-27T09:02:02.821Z,100947.61
2023-01-27T09:04:41.653Z,100950.52
2023-01-27T09:07:12.132Z,100954.83
2023-01-27T09:09:56.041Z,100958.60
2023-01-27T09:12:33.113Z,100960.83
2023-01-27T09:15:10.117Z,100963.07
2023-01-27T09:17:59.750Z,100965.80
2023-01-27T09:20:43.178Z,100966.48
2023-01-27T09:23:23.374Z,100971.13
2023-01-27T09:25:58.486Z,100970.10
2023-01-27T09:28:29.599Z,100970.26
2023-01-27T09:31:03.331Z,100975.23
2023-01-27T09:33:45.266Z,100974.23
2023-01-27T09:36:24.742Z,100979.73
2023-01-27T09:39:10.925Z,100980.23
2023-01-27T09:41:56.169Z,100978.36
2023-01-27T09:44:40.580Z,100978.36
2023-01-27T09:47:53.565Z,100976.25
2023-01-27T09:50:45.683Z,100978.52
2023-01-27T09:54:18.833Z,100975.71
2023-01-27T09:57:13.236Z,100977.09
2023-01-27T10:00:49.556Z,100978.48
2023-01-27T10:03:54.556Z,100979.69
2023-01-27T10:06:41.959Z,100980.20
2023-01-27T10:09:22.574Z,100981.31
2023-01-27T10:12:00.663Z,100984.81
2023-01-27T10:15:18.434Z,100985.95
2023-01-27T10:27:39.158Z,100992.96
2023-01-27T10:30:23.836Z,100994.81
2023-01-27T10:33:12.143Z,100999.05
2023-01-27T10:35:54.477Z,101000.70
2023-01-27T10:38:41.031Z,100999.61
2023-01-27T10:41:46.984Z,100998.52
2023-01-27T10:44:49.819Z,100995.71
2023-01-27T10:51:16.305Z,100992.90
2023-01-27T10:54:24.356Z,100994.30
2023-01-27T10:57:06.554Z,100995.41
2023-01-27T10:59:55.255Z,100994.02
2023-01-27T11:02:59.042Z,100985.89
2023-01-27T11:05:54.230Z,100992.52
2023-01-27T11:08:34.373Z,100989.02
2023-01-27T11:11:27.538Z,100987.91
2023-01-27T11:14:13.923Z,100987.98
2023-01-27T11:16:51.360Z,100990.09
2023-01-27T11:20:23.859Z,100986.88
2023-01-27T11:23:14.631Z,100982.42
2023-01-27T11:26:01.403Z,100977.30
2023-01-27T11:29:20.143Z,100973.02
2023-01-27T11:32:07.923Z,100974.91
2023-01-27T11:35:14.591Z,100971.67
2023-01-27T11:37:56.340Z,100968.27
2023-01-27T11:40:41.625Z,100965.21
2023-01-27T11:43:20.487Z,100965.05
2023-01-27T11:45:57.103Z,100964.03
2023-01-27T11:52:29.268Z,100968.85
2023-01-27T11:55:14.612Z,100967.64
2023-01-27T11:57:59.128Z,100965.75
2023-01-27T12:00:43.290Z,100967.98
2023-01-27T12:04:05.618Z,100968.32
2023-01-27T12:07:04.554Z,100963.13
2023-01-27T12:09:43.956Z,100962.77
2023-01-27T12:12:16.252Z,100966.39
2023-01-27T12:14:57.436Z,100968.64
2023-01-27T12:17:37.107Z,100966.73
2023-01-27T12:20:27.015Z,100970.52
2023-01-27T12:23:26.899Z,100969.44
2023-01-27T12:26:17.409Z,100970.81
2023-01-27T12:28:55.878Z,100969.11
2023-01-27T12:31:33.589Z,100968.11
2023-01-27T12:34:25.810Z,100972.08
2023-01-27T12:36:59.257Z,100969.83
2023-01-27T12:39:52.063Z,100968.64
2023-01-27T12:42:48.755Z,100966.59
2023-01-27T12:45:41.207Z,100966.92
2023-01-27T12:48:10.855Z,100966.58
2023-01-27T12:50:55.303Z,100969.66
2023-01-27T12:53:29.196Z,100968.82
2023-01-27T12:56:23.835Z,100969.68
2023-01-27T12:59:04.439Z,100968.27
2023-01-27T13:01:41.876Z,100970.69
2023-01-27T13:04:22.177Z,100973.96
2023-01-27T13:07:02.611Z,100973.44
2023-01-27T13:09:55.369Z,100977.21
2023-01-27T13:12:38.165Z,100977.38
2023-01-27T13:15:23.956Z,100980.80
2023-01-27T13:17:56.455Z,100985.10
2023-01-27T13:20:43.918Z,100986.64
2023-01-27T13:23:25.001Z,100985.80
2023-01-27T13:26:10.387Z,100986.51
2023-01-27T13:28:58.256Z,100991.84
2023-01-27T13:31:54.589Z,100989.44
2023-01-27T13:34:58.153Z,100987.39
2023-01-27T13:37:45.208Z,100991.14
2023-01-27T13:40:18.686Z,100991.65
2023-01-27T13:43:07.210Z,100995.44
2023-01-27T13:45:47.889Z,100995.45
2023-01-27T13:48:30.535Z,100997.52
2023-01-27T13:51:14.338Z,100999.77
2023-01-27T13:53:54.618Z,100995.32
2023-01-27T13:56:59.076Z,100997.90
2023-01-27T13:59:41.094Z,100995.84
2023-01-27T14:02:52.358Z,100997.22
2023-01-27T14:05:25.125Z,100998.77
2023-01-27T14:08:35.685Z,101004.98
2023-01-27T14:11:44.184Z,101003.39
2023-01-27T14:15:10.925Z,101004.41
2023-01-27T14:18:04.057Z,101009.36
2023-01-27T14:20:55.181Z,101009.01
2023-01-27T14:23:43.575Z,101013.98
2023-01-27T14:26:48.038Z,101016.38
2023-01-27T14:29:41.454Z,101017.41
2023-01-27T14:32:37.738Z,101021.55
2023-01-27T14:35:35.338Z,101021.55
2023-01-27T14:38:32.060Z,101025.34
2023-01-27T14:41:35.948Z,101023.27
2023-01-27T14:44:20.042Z,101026.88
2023-01-27T14:47:04.591Z,101030.17
2023-01-27T14:50:30.765Z,101028.95
2023-01-27T14:53:19.029Z,101031.32
2023-01-27T14:56:22.423Z,101028.23
2023-01-27T14:58:56.187Z,101029.91
2023-01-27T15:01:39.883Z,101032.31
2023-01-27T15:04:41.508Z,101032.51
2023-01-27T15:07:27.224Z,101031.32
2023-01-27T15:10:09.836Z,101031.50
2023-01-27T15:12:48.312Z,101029.59
2023-01-27T15:15:22.304Z,101029.23
2023-01-27T15:18:12.841Z,101029.06
2023-01-27T15:21:48.872Z,101027.20
2023-01-27T15:25:20.828Z,101034.89
2023-01-27T15:27:59.161Z,101037.80
2023-01-27T15:30:35.158Z,101042.79
2023-01-27T15:33:48.403Z,101041.40
2023-01-27T15:36:19.362Z,101040.34
2023-01-27T15:39:11.299Z,101040.63
2023-01-27T15:42:02.244Z,101044.06
2023-01-27T15:45:13.713Z,101048.22
2023-01-27T15:47:44.259Z,101049.06
2023-01-27T15:50:29.504Z,101050.78
2023-01-27T15:53:13.672Z,101052.30
2023-01-27T15:56:02.452Z,101056.77
2023-01-27T15:58:42.460Z,101065.51
2023-01-27T16:01:43.353Z,101062.77
2023-01-27T16:04:23.565Z,101064.32
2023-01-27T16:07:07.928Z,101067.95
2023-01-27T16:09:51.271Z,101066.23
2023-01-27T16:12:29.711Z,101070.01
2023-01-27T16:15:01.987Z,101070.01
2023-01-27T16:18:01.207Z,101069.83
2023-01-27T16:20:57.643Z,101067.06
2023-01-27T16:23:42.062Z,101068.63
2023-01-27T16:26:43.708Z,101071.36
2023-01-27T16:29:14.227Z,101066.52
2023-01-27T16:31:45.003Z,101067.72
2023-01-27T16:34:29.589Z,101072.20
2023-01-27T16:37:33.598Z,101077.36
2023-01-27T16:40:15.539Z,101079.77
2023-01-27T16:42:54.389Z,101074.62
2023-01-27T16:45:30.965Z,101075.48
2023-01-27T16:48:45.183Z,101081.68
2023-01-27T16:51:23.221Z,101084.58
2023-01-27T16:53:57.998Z,101087.34
2023-01-27T16:56:46.262Z,101087.31
2023-01-27T16:59:32.166Z,101086.64
2023-01-27T17:02:17.581Z,101086.33
2023-01-27T17:07:44.881Z,101094.23
2023-01-27T17:10:32.896Z,101089.79
2023-01-27T17:13:11.410Z,101090.66
2023-01-27T17:15:49.057Z,101089.82
2023-01-27T17:18:30.074Z,101091.70
2023-01-27T17:21:05.518Z,101094.77
2023-01-27T17:23:40.581Z,101091.81
2023-01-27T17:26:21.387Z,101091.80
2023-01-27T17:28:51.569Z,101091.77
2023-01-27T17:31:31.413Z,101090.56
2023-01-27T17:34:02.287Z,101090.73
2023-01-27T17:36:32.520Z,101089.70
2023-01-27T17:39:02.586Z,101093.48
2023-01-27T17:41:40.892Z,101097.24
2023-01-27T17:44:17.020Z,101095.14
2023-01-27T17:46:58.134Z,101100.93
2023-01-27T17:49:31.891Z,101099.20
2023-01-27T17:52:20.751Z,101099.19
2023-01-27T17:55:00.973Z,101101.40
2023-01-27T17:57:51.496Z,101100.65
2023-01-27T18:00:44.199Z,101104.73
2023-01-27T18:03:30.898Z,101105.75
2023-01-27T18:06:07.470Z,101103.86
2023-01-27T18:08:37.762Z,101105.57
2023-01-27T18:11:25.744Z,101116.58
2023-01-27T18:14:09.055Z,101113.64
2023-01-27T18:16:45.231Z,101115.02
2023-01-27T18:19:25.246Z,101121.20
2023-01-27T18:22:10.960Z,101124.79
2023-01-27T18:24:49.360Z,101125.79
2023-01-27T18:27:38.437Z,101125.63
2023-01-27T18:30:19.230Z,101126.84
2023-01-27T18:33:14.474Z,101130.11
2023-01-27T18:36:05.578Z,101132.00
2023-01-27T18:38:49.908Z,101135.42
2023-01-27T18:41:32.614Z,101139.88
2023-01-27T18:44:21.046Z,101141.73
2023-01-27T18:47:17.731Z,101144.27
2023-01-27T18:50:20.319Z,101145.84
2023-01-27T18:52:59.134Z,101144.48
2023-01-27T18:55:34.495Z,101151.15
2023-01-27T18:58:13.613Z,101151.00
2023-01-27T19:00:49.793Z,101150.48
2023-01-27T19:03:30.785Z,101153.23
2023-01-27T19:06:03.425Z,101154.13
2023-01-27T19:08:34.405Z,101153.11
2023-01-27T19:11:12.037Z,101155.70
2023-01-27T19:14:01.724Z,101158.98
2023-01-27T19:16:44.906Z,101163.09
2023-01-27T19:19:16.128Z,101166.70
2023-01-27T19:21:49.291Z,101164.32
2023-01-27T19:24:20.752Z,101167.41
2023-01-27T19:26:57.284Z,101172.19
2023-01-27T19:29:57.752Z,101173.73
2023-01-27T19:32:57.385Z,101177.64
2023-01-27T19:35:36.886Z,101177.10
2023-01-27T19:41:22.101Z,101189.42
2023-01-27T19:43:52.488Z,101183.86
2023-01-27T19:46:28.065Z,101188.15
2023-01-27T19:49:03.704Z,101191.43
2023-01-27T19:51:48.472Z,101190.95
2023-01-27T19:54:25.983Z,101189.27
2023-01-27T19:57:16.923Z,101195.09
2023-01-27T19:59:48.403Z,101189.41
2023-01-27T20:02:18.226Z,101187.34
2023-01-27T20:04:50.236Z,101184.77
2023-01-27T20:07:30.921Z,101183.92
2023-01-27T20:10:16.862Z,101189.61
2023-01-27T20:13:06.487Z,101193.89
2023-01-27T20:15:54.700Z,101194.41
2023-01-27T20:19:32.075Z,101198.90
2023-01-27T20:22:01.895Z,101196.81
2023-01-27T20:25:00.018Z,101198.37
2023-01-27T20:27:34.522Z,101197.34
2023-01-27T20:30:20.178Z,101197.16
2023-01-27T20:32:50.502Z,101198.04
2023-01-27T20:35:25.856Z,101194.40
2023-01-27T20:37:57.264Z,101195.27
2023-01-27T20:41:03.267Z,101190.26
2023-01-27T20:43:39.177Z,101186.98
2023-01-27T20:49:31.167Z,101185.34
2023-01-27T20:52:15.529Z,101183.95
2023-01-27T20:55:17.891Z,101193.02
2023-01-27T21:01:36.888Z,101188.59
2023-01-27T21:04:34.081Z,101190.59
2023-01-27T21:07:24.245Z,101194.18
2023-01-27T21:10:03.965Z,101195.54
2023-01-27T21:12:48.808Z,101193.48
2023-01-27T21:15:50.599Z,101196.73
2023-01-27T21:18:23.840Z,101192.66
2023-01-27T21:21:00.097Z,101193.52
2023-01-27T21:23:39.502Z,101190.61
2023-01-27T21:26:23.534Z,101189.06
2023-01-27T21:29:18.666Z,101193.68
2023-01-27T21:31:57.013Z,101189.90
2023-01-27T21:34:32.897Z,101193.65
2023-01-27T21:37:06.024Z,101198.11
2023-01-27T21:39:49.021Z,101190.06
2023-01-27T21:42:18.692Z,101192.65
2023-01-27T21:45:09.388Z,101194.88
2023-01-27T21:47:43.836Z,101191.39
2023-01-27T21:50:19.254Z,101194.64
2023-01-27T21:53:03.350Z,101192.73
2023-01-27T21:55:44.991Z,101189.30
2023-01-27T21:58:36.457Z,101193.63
2023-01-27T22:01:37.964Z,101193.83
2023-01-27T22:07:19.212Z,101193.30
2023-01-27T22:10:02.206Z,101186.96
2023-01-27T22:12:56.391Z,101187.80
2023-01-27T22:15:45.535Z,101187.47
2023-01-27T22:19:01.147Z,101185.41
2023-01-27T22:21:36.857Z,101186.27
2023-01-27T22:24:28.315Z,101184.75
2023-01-27T22:27:05.351Z,101184.42
2023-01-27T22:29:43.352Z,101189.40
2023-01-27T22:32:16.172Z,101191.79
2023-01-27T22:34:48.604Z,101193.84
2023-01-27T22:37:20.970Z,101192.38
2023-01-27T22:39:50.554Z,101192.74
2023-01-27T22:42:53.519Z,101192.69
2023-01-27T22:45:13.578Z,101192.02
2023-01-27T22:47:43.491Z,101192.23
2023-01-27T22:50:20.439Z,101193.61
2023-01-27T22:53:03.841Z,101196.87
2023-01-27T22:55:39.077Z,101194.30
2023-01-27T22:58:19.901Z,101196.19
2023-01-27T23:01:03.892Z,101192.55
2023-01-27T23:03:35.993Z,101190.81
2023-01-27T23:06:08.495Z,101187.17
2023-01-27T23:08:41.310Z,101191.24
2023-01-27T23:11:14.319Z,101188.28
2023-01-27T23:13:45.267Z,101186.73
2023-01-27T23:16:19.011Z,101184.64
2023-01-27T23:18:59.027Z,101179.92
2023-01-27T23:21:33.596Z,101178.28
2023-01-27T23:24:05.351Z,101180.95
2023-01-27T23:26:44.608Z,101174.55
2023-01-27T23:29:24.945Z,101174.30
2023-01-27T23:32:06.106Z,101172.59
2023-01-27T23:34:38.728Z,101171.67
2023-01-27T23:37:14.913Z,101170.62
2023-01-27T23:39:50.999Z,101168.73
2023-01-27T23:42:21.732Z,101168.20
2023-01-27T23:44:56.156Z,101168.66
2023-01-27T23:47:26.306Z,101165.52
2023-01-27T23:49:56.431Z,101170.92
2023-01-27T23:52:33.840Z,101180.60
2023-01-27T23:55:04.804Z,101181.38
2023-01-27T23:57:37.879Z,101181.36
